sensor_id;sensor_type;location;lat;lon;timestamp;P1;durP1;ratioP1;P2;durP2;ratioP2
673;SDS011;319;48.764;9.174;2023-07-31T00:02:07;6.30;;;6.20;;
673;SDS011;319;48.764;9.174;2023-07-31T00:04:34;6.43;;;6.30;;
673;SDS011;319;48.764;9.174;2023-07-31T00:07:01;7.23;;;7.03;;
673;SDS011;319;48.764;9.174;2023-07-31T00:09:29;1.77;;;1.77;;
673;SDS011;319;48.764;9.174;2023-07-31T00:11:56;1.00;;;1.00;;
673;SDS011;319;48.764;9.174;2023-07-31T00:14:23;0.90;;;0.90;;
673;SDS011;319;48.764;9.174;2023-07-31T00:16:51;0.90;;;0.90;;
673;SDS011;319;48.764;9.174;2023-07-31T00:19:18;0.90;;;0.90;;
673;SDS011;319;48.764;9.174;2023-07-31T00:21:45;1.00;;;1.00;;
673;SDS011;319;48.764;9.174;2023-07-31T00:24:12;1.00;;;1.00;;
673;SDS011;319;48.764;9.174;2023-07-31T00:26:39;1.00;;;1.00;;
673;SDS011;319;48.764;9.174;2023-07-31T00:29:06;1.00;;;1.00;;
673;SDS011;319;48.764;9.174;2023-07-31T00:31:32;0.90;;;0.90;;
673;SDS011;319;48.764;9.174;2023-07-31T00:34:01;1.10;;;1.10;;
673;SDS011;319;48.764;9.174;2023-07-31T00:36:28;1.00;;;1.00;;
673;SDS011;319;48.764;9.174;2023-07-31T00:38:55;1.17;;;1.17;;
673;SDS011;319;48.764;9.174;2023-07-31T00:41:22;1.07;;;1.07;;
673;SDS011;319;48.764;9.174;2023-07-31T00:43:49;5.47;;;5.37;;
673;SDS011;319;48.764;9.174;2023-07-31T00:46:19;3.57;;;3.47;;
673;SDS011;319;48.764;9.174;2023-07-31T00:48:46;3.10;;;3.00;;
673;SDS011;319;48.764;9.174;2023-07-31T00:51:15;1.80;;;1.80;;
673;SDS011;319;48.764;9.174;2023-07-31T00:53:42;2.40;;;2.40;;
673;SDS011;319;48.764;9.174;2023-07-31T00:56:09;2.50;;;2.50;;
673;SDS011;319;48.764;9.174;2023-07-31T00:58:37;1.90;;;1.90;;
673;SDS011;319;48.764;9.174;2023-07-31T01:01:04;2.13;;;2.13;;
673;SDS011;319;48.764;9.174;2023-07-31T01:03:31;2.03;;;2.03;;
673;SDS011;319;48.764;9.174;2023-07-31T01:06:02;4.30;;;4.20;;
673;SDS011;319;48.764;9.174;2023-07-31T01:08:51;4.87;;;4.77;;
673;SDS011;319;48.764;9.174;2023-07-31T01:11:29;4.90;;;4.80;;
673;SDS011;319;48.764;9.174;2023-07-31T01:13:58;5.90;;;5.80;;
673;SDS011;319;48.764;9.174;2023-07-31T01:16:25;4.93;;;4.83;;
673;SDS011;319;48.764;9.174;2023-07-31T01:18:53;5.10;;;5.00;;
673;SDS011;319;48.764;9.174;2023-07-31T01:21:30;4.40;;;4.30;;
673;SDS011;319;48.764;9.174;2023-07-31T01:24:22;4.97;;;4.87;;
673;SDS011;319;48.764;9.174;2023-07-31T01:26:57;3.60;;;3.50;;
673;SDS011;319;48.764;9.174;2023-07-31T01:29:32;4.30;;;4.20;;
673;SDS011;319;48.764;9.174;2023-07-31T01:32:04;4.20;;;4.10;;
673;SDS011;319;48.764;9.174;2023-07-31T01:34:33;2.50;;;2.50;;
673;SDS011;319;48.764;9.174;2023-07-31T01:37:03;2.20;;;2.20;;
673;SDS011;319;48.764;9.174;2023-07-31T01:39:31;5.70;;;5.60;;
673;SDS011;319;48.764;9.174;2023-07-31T01:42:18;5.60;;;5.50;;
673;SDS011;319;48.764;9.174;2023-07-31T01:44:45;4.07;;;3.97;;
673;SDS011;319;48.764;9.174;2023-07-31T01:47:12;1.20;;;1.20;;
673;SDS011;319;48.764;9.174;2023-07-31T01:49:42;5.37;;;5.27;;
673;SDS011;319;48.764;9.174;2023-07-31T01:52:09;7.60;;;7.40;;
673;SDS011;319;48.764;9.174;2023-07-31T01:54:36;5.80;;;5.70;;
673;SDS011;319;48.764;9.174;2023-07-31T01:57:03;5.17;;;5.07;;
673;SDS011;319;48.764;9.174;2023-07-31T01:59:32;3.93;;;3.83;;
673;SDS011;319;48.764;9.174;2023-07-31T02:01:59;4.80;;;4.70;;
673;SDS011;319;48.764;9.174;2023-07-31T02:04:26;3.70;;;3.60;;
673;SDS011;319;48.764;9.174;2023-07-31T02:06:56;1.53;;;1.53;;
673;SDS011;319;48.764;9.174;2023-07-31T02:09:23;1.90;;;1.90;;
673;SDS011;319;48.764;9.174;2023-07-31T02:11:50;1.50;;;1.50;;
673;SDS011;319;48.764;9.174;2023-07-31T02:14:16;2.10;;;2.10;;
673;SDS011;319;48.764;9.174;2023-07-31T02:16:45;2.00;;;2.00;;
673;SDS011;319;48.764;9.174;2023-07-31T02:19:12;1.53;;;1.53;;
673;SDS011;319;48.764;9.174;2023-07-31T02:21:39;1.40;;;1.40;;
673;SDS011;319;48.764;9.174;2023-07-31T02:24:06;2.50;;;2.50;;
673;SDS011;319;48.764;9.174;2023-07-31T02:26:33;2.10;;;2.10;;
673;SDS011;319;48.764;9.174;2023-07-31T02:28:59;2.17;;;2.17;;
673;SDS011;319;48.764;9.174;2023-07-31T02:31:26;2.10;;;2.10;;
673;SDS011;319;48.764;9.174;2023-07-31T02:33:54;2.30;;;2.30;;
673;SDS011;319;48.764;9.174;2023-07-31T02:36:21;1.90;;;1.90;;
673;SDS011;319;48.764;9.174;2023-07-31T02:38:50;1.90;;;1.90;;
673;SDS011;319;48.764;9.174;2023-07-31T02:41:17;3.60;;;3.50;;
673;SDS011;319;48.764;9.174;2023-07-31T02:43:46;3.30;;;3.20;;
673;SDS011;319;48.764;9.174;2023-07-31T02:46:13;2.97;;;2.87;;
673;SDS011;319;48.764;9.174;2023-07-31T02:48:43;3.00;;;2.90;;
673;SDS011;319;48.764;9.174;2023-07-31T02:51:12;2.60;;;2.60;;
673;SDS011;319;48.764;9.174;2023-07-31T02:53:39;2.50;;;2.50;;
673;SDS011;319;48.764;9.174;2023-07-31T02:56:06;2.70;;;2.70;;
673;SDS011;319;48.764;9.174;2023-07-31T02:58:33;2.70;;;2.70;;
673;SDS011;319;48.764;9.174;2023-07-31T03:01:00;3.10;;;3.00;;
673;SDS011;319;48.764;9.174;2023-07-31T03:03:27;6.10;;;6.00;;
673;SDS011;319;48.764;9.174;2023-07-31T03:05:54;5.53;;;5.43;;
673;SDS011;319;48.764;9.174;2023-07-31T03:08:22;4.27;;;4.17;;
673;SDS011;319;48.764;9.174;2023-07-31T03:10:49;5.20;;;5.10;;
673;SDS011;319;48.764;9.174;2023-07-31T03:13:19;5.77;;;5.67;;
673;SDS011;319;48.764;9.174;2023-07-31T03:15:46;5.70;;;5.60;;
673;SDS011;319;48.764;9.174;2023-07-31T03:18:13;6.20;;;6.10;;
673;SDS011;319;48.764;9.174;2023-07-31T03:20:42;6.90;;;6.70;;
673;SDS011;319;48.764;9.174;2023-07-31T03:23:09;5.90;;;5.80;;
673;SDS011;319;48.764;9.174;2023-07-31T03:25:37;5.83;;;5.73;;
673;SDS011;319;48.764;9.174;2023-07-31T03:28:04;5.40;;;5.30;;
673;SDS011;319;48.764;9.174;2023-07-31T03:30:31;6.13;;;6.03;;
673;SDS011;319;48.764;9.174;2023-07-31T03:32:58;6.27;;;6.17;;
673;SDS011;319;48.764;9.174;2023-07-31T03:35:28;6.23;;;6.13;;
673;SDS011;319;48.764;9.174;2023-07-31T03:37:55;6.10;;;6.00;;
673;SDS011;319;48.764;9.174;2023-07-31T03:40:24;5.50;;;5.40;;
673;SDS011;319;48.764;9.174;2023-07-31T03:42:53;6.03;;;5.93;;
673;SDS011;319;48.764;9.174;2023-07-31T03:45:20;6.70;;;6.50;;
673;SDS011;319;48.764;9.174;2023-07-31T03:47:47;5.60;;;5.50;;
673;SDS011;319;48.764;9.174;2023-07-31T03:50:14;6.70;;;6.50;;
673;SDS011;319;48.764;9.174;2023-07-31T03:52:41;6.60;;;6.40;;
673;SDS011;319;48.764;9.174;2023-07-31T03:55:08;4.87;;;4.77;;
673;SDS011;319;48.764;9.174;2023-07-31T03:57:35;7.20;;;7.00;;
673;SDS011;319;48.764;9.174;2023-07-31T04:00:04;6.50;;;6.40;;
673;SDS011;319;48.764;9.174;2023-07-31T04:02:32;5.90;;;5.80;;
673;SDS011;319;48.764;9.174;2023-07-31T04:04:59;6.57;;;6.40;;
673;SDS011;319;48.764;9.174;2023-07-31T04:07:26;6.60;;;6.43;;
673;SDS011;319;48.764;9.174;2023-07-31T04:09:53;5.80;;;5.70;;
673;SDS011;319;48.764;9.174;2023-07-31T04:12:20;5.90;;;5.80;;
673;SDS011;319;48.764;9.174;2023-07-31T04:14:46;5.50;;;5.40;;
673;SDS011;319;48.764;9.174;2023-07-31T04:17:15;5.47;;;5.37;;
673;SDS011;319;48.764;9.174;2023-07-31T04:19:45;5.80;;;5.70;;
673;SDS011;319;48.764;9.174;2023-07-31T04:22:12;6.10;;;6.00;;
673;SDS011;319;48.764;9.174;2023-07-31T04:24:39;6.57;;;6.37;;
673;SDS011;319;48.764;9.174;2023-07-31T04:27:06;5.30;;;5.20;;
673;SDS011;319;48.764;9.174;2023-07-31T04:29:33;4.97;;;4.87;;
673;SDS011;319;48.764;9.174;2023-07-31T04:32:00;6.10;;;6.00;;
673;SDS011;319;48.764;9.174;2023-07-31T04:34:28;5.40;;;5.30;;
673;SDS011;319;48.764;9.174;2023-07-31T04:36:55;6.33;;;6.20;;
673;SDS011;319;48.764;9.174;2023-07-31T04:39:22;6.80;;;6.60;;
673;SDS011;319;48.764;9.174;2023-07-31T04:41:49;7.53;;;7.33;;
673;SDS011;319;48.764;9.174;2023-07-31T04:44:16;6.47;;;6.30;;
673;SDS011;319;48.764;9.174;2023-07-31T04:46:43;7.80;;;7.60;;
673;SDS011;319;48.764;9.174;2023-07-31T04:49:10;5.30;;;5.20;;
673;SDS011;319;48.764;9.174;2023-07-31T04:51:39;4.90;;;4.80;;
673;SDS011;319;48.764;9.174;2023-07-31T04:54:06;6.93;;;6.73;;
673;SDS011;319;48.764;9.174;2023-07-31T04:56:33;8.20;;;8.00;;
673;SDS011;319;48.764;9.174;2023-07-31T04:59:00;8.53;;;8.33;;
673;SDS011;319;48.764;9.174;2023-07-31T05:01:27;9.53;;;9.33;;
673;SDS011;319;48.764;9.174;2023-07-31T05:03:54;10.60;;;10.30;;
673;SDS011;319;48.764;9.174;2023-07-31T05:06:21;9.77;;;9.57;;
673;SDS011;319;48.764;9.174;2023-07-31T05:08:49;7.67;;;7.47;;
673;SDS011;319;48.764;9.174;2023-07-31T05:11:16;10.43;;;10.13;;
673;SDS011;319;48.764;9.174;2023-07-31T05:13:43;9.73;;;9.53;;
673;SDS011;319;48.764;9.174;2023-07-31T05:16:10;4.10;;;4.00;;
673;SDS011;319;48.764;9.174;2023-07-31T05:18:37;3.83;;;3.73;;
673;SDS011;319;48.764;9.174;2023-07-31T05:21:03;4.10;;;4.00;;
673;SDS011;319;48.764;9.174;2023-07-31T05:23:30;3.90;;;3.80;;
673;SDS011;319;48.764;9.174;2023-07-31T05:26:03;3.10;;;3.00;;
673;SDS011;319;48.764;9.174;2023-07-31T05:28:30;2.23;;;2.23;;
673;SDS011;319;48.764;9.174;2023-07-31T05:30:58;3.80;;;3.70;;
673;SDS011;319;48.764;9.174;2023-07-31T05:33:26;1.50;;;1.50;;
673;SDS011;319;48.764;9.174;2023-07-31T05:35:53;1.60;;;1.60;;
673;SDS011;319;48.764;9.174;2023-07-31T05:38:20;6.33;;;6.23;;
673;SDS011;319;48.764;9.174;2023-07-31T05:40:47;4.70;;;4.60;;
673;SDS011;319;48.764;9.174;2023-07-31T05:43:15;4.40;;;4.30;;
673;SDS011;319;48.764;9.174;2023-07-31T05:45:42;2.80;;;2.70;;
673;SDS011;319;48.764;9.174;2023-07-31T05:48:09;4.60;;;4.50;;
673;SDS011;319;48.764;9.174;2023-07-31T05:50:36;1.40;;;1.40;;
673;SDS011;319;48.764;9.174;2023-07-31T05:53:04;1.10;;;1.10;;
673;SDS011;319;48.764;9.174;2023-07-31T05:55:31;5.50;;;5.40;;
673;SDS011;319;48.764;9.174;2023-07-31T05:57:58;1.70;;;1.70;;
673;SDS011;319;48.764;9.174;2023-07-31T06:00:26;1.00;;;1.00;;
673;SDS011;319;48.764;9.174;2023-07-31T06:03:02;2.93;;;2.83;;
673;SDS011;319;48.764;9.174;2023-07-31T06:05:29;3.63;;;3.53;;
673;SDS011;319;48.764;9.174;2023-07-31T06:07:56;0.97;;;0.97;;
673;SDS011;319;48.764;9.174;2023-07-31T06:10:23;1.93;;;1.93;;
673;SDS011;319;48.764;9.174;2023-07-31T06:12:50;1.00;;;1.00;;
673;SDS011;319;48.764;9.174;2023-07-31T06:15:17;1.17;;;1.17;;
673;SDS011;319;48.764;9.174;2023-07-31T06:17:47;1.00;;;1.00;;
673;SDS011;319;48.764;9.174;2023-07-31T06:20:14;1.00;;;1.00;;
673;SDS011;319;48.764;9.174;2023-07-31T06:22:41;0.90;;;0.90;;
673;SDS011;319;48.764;9.174;2023-07-31T06:25:08;0.90;;;0.90;;
673;SDS011;319;48.764;9.174;2023-07-31T06:27:35;0.90;;;0.90;;
673;SDS011;319;48.764;9.174;2023-07-31T06:30:02;0.90;;;0.90;;
673;SDS011;319;48.764;9.174;2023-07-31T06:32:30;1.13;;;1.13;;
673;SDS011;319;48.764;9.174;2023-07-31T06:38:13;0.90;;;0.90;;
673;SDS011;319;48.764;9.174;2023-07-31T06:40:40;1.10;;;1.10;;
673;SDS011;319;48.764;9.174;2023-07-31T06:43:08;0.70;;;0.70;;
673;SDS011;319;48.764;9.174;2023-07-31T06:45:38;0.80;;;0.80;;
673;SDS011;319;48.764;9.174;2023-07-31T06:48:05;0.80;;;0.80;;
673;SDS011;319;48.764;9.174;2023-07-31T06:50:32;0.87;;;0.87;;
673;SDS011;319;48.764;9.174;2023-07-31T06:52:59;0.90;;;0.90;;
673;SDS011;319;48.764;9.174;2023-07-31T06:55:27;2.80;;;2.70;;
673;SDS011;319;48.764;9.174;2023-07-31T06:57:55;0.90;;;0.90;;
673;SDS011;319;48.764;9.174;2023-07-31T07:00:23;7.73;;;7.53;;
673;SDS011;319;48.764;9.174;2023-07-31T07:02:50;11.10;;;10.80;;
673;SDS011;319;48.764;9.174;2023-07-31T07:05:17;8.67;;;8.47;;
673;SDS011;319;48.764;9.174;2023-07-31T07:07:44;10.07;;;9.77;;
673;SDS011;319;48.764;9.174;2023-07-31T07:10:11;8.53;;;8.33;;
673;SDS011;319;48.764;9.174;2023-07-31T07:12:43;10.67;;;10.37;;
673;SDS011;319;48.764;9.174;2023-07-31T07:15:10;9.50;;;9.30;;
673;SDS011;319;48.764;9.174;2023-07-31T07:17:38;12.70;;;12.30;;
673;SDS011;319;48.764;9.174;2023-07-31T07:20:06;10.70;;;10.40;;
673;SDS011;319;48.764;9.174;2023-07-31T07:22:34;10.23;;;9.93;;
673;SDS011;319;48.764;9.174;2023-07-31T07:25:01;11.50;;;11.20;;
673;SDS011;319;48.764;9.174;2023-07-31T07:27:28;11.07;;;10.77;;
673;SDS011;319;48.764;9.174;2023-07-31T07:29:57;7.67;;;7.47;;
673;SDS011;319;48.764;9.174;2023-07-31T07:32:25;9.43;;;9.23;;
673;SDS011;319;48.764;9.174;2023-07-31T07:34:55;10.93;;;10.63;;
673;SDS011;319;48.764;9.174;2023-07-31T07:37:23;2.33;;;2.33;;
673;SDS011;319;48.764;9.174;2023-07-31T07:39:53;3.73;;;3.63;;
673;SDS011;319;48.764;9.174;2023-07-31T07:42:20;8.93;;;8.73;;
673;SDS011;319;48.764;9.174;2023-07-31T07:44:51;10.40;;;10.10;;
673;SDS011;319;48.764;9.174;2023-07-31T07:47:22;3.67;;;3.57;;
673;SDS011;319;48.764;9.174;2023-07-31T07:49:49;8.40;;;8.20;;
673;SDS011;319;48.764;9.174;2023-07-31T07:52:19;3.90;;;3.80;;
673;SDS011;319;48.764;9.174;2023-07-31T07:54:46;6.20;;;6.10;;
673;SDS011;319;48.764;9.174;2023-07-31T07:57:13;6.13;;;6.00;;
673;SDS011;319;48.764;9.174;2023-07-31T07:59:40;4.93;;;4.83;;
673;SDS011;319;48.764;9.174;2023-07-31T08:02:10;4.53;;;4.43;;
673;SDS011;319;48.764;9.174;2023-07-31T08:04:39;3.90;;;3.80;;
673;SDS011;319;48.764;9.174;2023-07-31T08:07:06;10.80;;;10.50;;
673;SDS011;319;48.764;9.174;2023-07-31T08:09:33;8.80;;;8.60;;
673;SDS011;319;48.764;9.174;2023-07-31T08:12:00;9.93;;;9.63;;
673;SDS011;319;48.764;9.174;2023-07-31T08:14:28;8.53;;;8.33;;
673;SDS011;319;48.764;9.174;2023-07-31T08:16:55;3.37;;;3.27;;
673;SDS011;319;48.764;9.174;2023-07-31T08:19:22;6.60;;;6.40;;
673;SDS011;319;48.764;9.174;2023-07-31T08:21:50;10.20;;;9.90;;
673;SDS011;319;48.764;9.174;2023-07-31T08:24:17;9.90;;;9.63;;
673;SDS011;319;48.764;9.174;2023-07-31T08:26:44;12.10;;;11.80;;
673;SDS011;319;48.764;9.174;2023-07-31T08:29:11;11.23;;;10.93;;
673;SDS011;319;48.764;9.174;2023-07-31T08:31:38;12.97;;;12.67;;
673;SDS011;319;48.764;9.174;2023-07-31T08:34:05;7.53;;;7.33;;
673;SDS011;319;48.764;9.174;2023-07-31T08:36:32;5.63;;;5.53;;
673;SDS011;319;48.764;9.174;2023-07-31T08:39:00;7.70;;;7.50;;
673;SDS011;319;48.764;9.174;2023-07-31T08:41:28;10.07;;;9.80;;
673;SDS011;319;48.764;9.174;2023-07-31T08:43:55;11.50;;;11.20;;
673;SDS011;319;48.764;9.174;2023-07-31T08:46:23;8.87;;;8.67;;
673;SDS011;319;48.764;9.174;2023-07-31T08:48:51;9.00;;;8.80;;
673;SDS011;319;48.764;9.174;2023-07-31T08:51:19;9.83;;;9.60;;
673;SDS011;319;48.764;9.174;2023-07-31T08:53:46;12.60;;;12.30;;
673;SDS011;319;48.764;9.174;2023-07-31T08:56:15;6.17;;;6.03;;
673;SDS011;319;48.764;9.174;2023-07-31T08:58:43;5.43;;;5.33;;
673;SDS011;319;48.764;9.174;2023-07-31T09:01:12;11.90;;;11.60;;
673;SDS011;319;48.764;9.174;2023-07-31T09:03:40;10.00;;;9.70;;
673;SDS011;319;48.764;9.174;2023-07-31T09:06:08;10.77;;;10.47;;
673;SDS011;319;48.764;9.174;2023-07-31T09:08:36;11.53;;;11.23;;
673;SDS011;319;48.764;9.174;2023-07-31T09:11:06;11.00;;;10.70;;
673;SDS011;319;48.764;9.174;2023-07-31T09:13:35;11.07;;;10.77;;
673;SDS011;319;48.764;9.174;2023-07-31T09:16:03;11.57;;;11.27;;
673;SDS011;319;48.764;9.174;2023-07-31T09:18:30;9.83;;;9.60;;
673;SDS011;319;48.764;9.174;2023-07-31T09:21:01;7.13;;;6.93;;
673;SDS011;319;48.764;9.174;2023-07-31T09:23:39;9.20;;;9.00;;
673;SDS011;319;48.764;9.174;2023-07-31T09:26:07;10.80;;;10.50;;
673;SDS011;319;48.764;9.174;2023-07-31T09:28:38;9.50;;;9.30;;
673;SDS011;319;48.764;9.174;2023-07-31T09:31:07;10.40;;;10.10;;
673;SDS011;319;48.764;9.174;2023-07-31T09:33:35;9.77;;;9.57;;
673;SDS011;319;48.764;9.174;2023-07-31T09:36:21;10.00;;;9.73;;
673;SDS011;319;48.764;9.174;2023-07-31T09:38:49;10.47;;;10.17;;
673;SDS011;319;48.764;9.174;2023-07-31T09:41:16;10.67;;;10.37;;
673;SDS011;319;48.764;9.174;2023-07-31T09:43:45;14.23;;;13.73;;
673;SDS011;319;48.764;9.174;2023-07-31T09:46:20;11.40;;;11.10;;
673;SDS011;319;48.764;9.174;2023-07-31T09:48:47;14.50;;;14.10;;
673;SDS011;319;48.764;9.174;2023-07-31T09:51:15;12.83;;;12.53;;
673;SDS011;319;48.764;9.174;2023-07-31T09:53:42;12.20;;;11.90;;
673;SDS011;319;48.764;9.174;2023-07-31T09:56:16;12.30;;;12.00;;
673;SDS011;319;48.764;9.174;2023-07-31T09:58:47;12.07;;;11.77;;
673;SDS011;319;48.764;9.174;2023-07-31T10:01:18;12.93;;;12.63;;
673;SDS011;319;48.764;9.174;2023-07-31T10:03:46;11.90;;;11.60;;
673;SDS011;319;48.764;9.174;2023-07-31T10:06:15;11.90;;;11.60;;
673;SDS011;319;48.764;9.174;2023-07-31T10:08:44;11.47;;;11.17;;
673;SDS011;319;48.764;9.174;2023-07-31T10:11:13;12.97;;;12.67;;
673;SDS011;319;48.764;9.174;2023-07-31T10:13:42;12.80;;;12.50;;
673;SDS011;319;48.764;9.174;2023-07-31T10:16:11;9.80;;;9.60;;
673;SDS011;319;48.764;9.174;2023-07-31T10:18:40;13.60;;;13.20;;
673;SDS011;319;48.764;9.174;2023-07-31T10:21:08;11.80;;;11.50;;
673;SDS011;319;48.764;9.174;2023-07-31T10:23:36;13.03;;;12.73;;
673;SDS011;319;48.764;9.174;2023-07-31T10:26:04;10.77;;;10.47;;
673;SDS011;319;48.764;9.174;2023-07-31T10:28:34;13.33;;;12.93;;
673;SDS011;319;48.764;9.174;2023-07-31T10:31:02;13.20;;;12.80;;
673;SDS011;319;48.764;9.174;2023-07-31T10:33:35;10.43;;;10.13;;
673;SDS011;319;48.764;9.174;2023-07-31T10:38:48;5.00;;;4.90;;
673;SDS011;319;48.764;9.174;2023-07-31T10:41:16;5.03;;;4.93;;
673;SDS011;319;48.764;9.174;2023-07-31T10:43:46;3.80;;;3.70;;
673;SDS011;319;48.764;9.174;2023-07-31T10:46:13;5.83;;;5.73;;
673;SDS011;319;48.764;9.174;2023-07-31T10:48:42;7.00;;;6.80;;
673;SDS011;319;48.764;9.174;2023-07-31T10:51:23;14.90;;;14.50;;
673;SDS011;319;48.764;9.174;2023-07-31T10:53:50;17.00;;;16.50;;
673;SDS011;319;48.764;9.174;2023-07-31T10:56:37;16.80;;;16.30;;
673;SDS011;319;48.764;9.174;2023-07-31T10:59:07;13.50;;;13.10;;
673;SDS011;319;48.764;9.174;2023-07-31T11:01:51;17.47;;;16.97;;
673;SDS011;319;48.764;9.174;2023-07-31T11:04:23;18.13;;;17.63;;
673;SDS011;319;48.764;9.174;2023-07-31T11:06:57;18.63;;;18.13;;
673;SDS011;319;48.764;9.174;2023-07-31T11:09:27;14.20;;;13.80;;
673;SDS011;319;48.764;9.174;2023-07-31T11:11:57;17.83;;;17.33;;
673;SDS011;319;48.764;9.174;2023-07-31T11:14:27;16.47;;;15.97;;
673;SDS011;319;48.764;9.174;2023-07-31T11:16:57;17.83;;;17.33;;
673;SDS011;319;48.764;9.174;2023-07-31T11:19:26;17.03;;;16.53;;
673;SDS011;319;48.764;9.174;2023-07-31T11:21:53;18.40;;;17.90;;
673;SDS011;319;48.764;9.174;2023-07-31T11:24:20;6.93;;;6.73;;
673;SDS011;319;48.764;9.174;2023-07-31T11:26:49;10.20;;;9.90;;
673;SDS011;319;48.764;9.174;2023-07-31T11:29:16;12.50;;;12.20;;
673;SDS011;319;48.764;9.174;2023-07-31T11:31:44;8.40;;;8.20;;
673;SDS011;319;48.764;9.174;2023-07-31T11:34:14;10.67;;;10.37;;
673;SDS011;319;48.764;9.174;2023-07-31T11:36:53;12.07;;;11.77;;
673;SDS011;319;48.764;9.174;2023-07-31T11:39:24;5.30;;;5.20;;
673;SDS011;319;48.764;9.174;2023-07-31T11:41:58;7.60;;;7.40;;
673;SDS011;319;48.764;9.174;2023-07-31T11:44:40;6.77;;;6.57;;
673;SDS011;319;48.764;9.174;2023-07-31T11:47:12;10.20;;;9.90;;
673;SDS011;319;48.764;9.174;2023-07-31T11:49:39;10.23;;;9.93;;
673;SDS011;319;48.764;9.174;2023-07-31T11:52:08;15.70;;;15.30;;
673;SDS011;319;48.764;9.174;2023-07-31T11:54:35;16.20;;;15.70;;
673;SDS011;319;48.764;9.174;2023-07-31T11:57:04;10.23;;;9.93;;
673;SDS011;319;48.764;9.174;2023-07-31T11:59:32;9.93;;;9.70;;
673;SDS011;319;48.764;9.174;2023-07-31T12:01:59;13.73;;;13.33;;
673;SDS011;319;48.764;9.174;2023-07-31T12:04:28;9.50;;;9.30;;
673;SDS011;319;48.764;9.174;2023-07-31T12:06:55;11.13;;;10.83;;
673;SDS011;319;48.764;9.174;2023-07-31T12:09:25;10.50;;;10.20;;
673;SDS011;319;48.764;9.174;2023-07-31T12:11:52;10.20;;;9.90;;
673;SDS011;319;48.764;9.174;2023-07-31T12:14:23;8.23;;;8.03;;
673;SDS011;319;48.764;9.174;2023-07-31T12:16:54;8.10;;;7.90;;
673;SDS011;319;48.764;9.174;2023-07-31T12:19:22;15.70;;;15.27;;
673;SDS011;319;48.764;9.174;2023-07-31T12:21:51;19.97;;;19.37;;
673;SDS011;319;48.764;9.174;2023-07-31T12:24:20;14.80;;;14.40;;
673;SDS011;319;48.764;9.174;2023-07-31T12:26:52;19.57;;;18.97;;
673;SDS011;319;48.764;9.174;2023-07-31T12:29:19;17.83;;;17.33;;
673;SDS011;319;48.764;9.174;2023-07-31T12:31:47;18.90;;;18.40;;
673;SDS011;319;48.764;9.174;2023-07-31T12:34:15;19.10;;;18.53;;
673;SDS011;319;48.764;9.174;2023-07-31T12:36:43;18.50;;;18.00;;
673;SDS011;319;48.764;9.174;2023-07-31T12:39:10;13.20;;;12.80;;
673;SDS011;319;48.764;9.174;2023-07-31T12:41:39;17.40;;;16.90;;
673;SDS011;319;48.764;9.174;2023-07-31T12:44:06;19.70;;;19.10;;
673;SDS011;319;48.764;9.174;2023-07-31T12:46:33;18.17;;;17.67;;
673;SDS011;319;48.764;9.174;2023-07-31T12:49:00;13.90;;;13.50;;
673;SDS011;319;48.764;9.174;2023-07-31T12:51:27;6.67;;;6.47;;
673;SDS011;319;48.764;9.174;2023-07-31T12:53:54;6.87;;;6.67;;
673;SDS011;319;48.764;9.174;2023-07-31T12:56:21;7.43;;;7.23;;
673;SDS011;319;48.764;9.174;2023-07-31T12:58:49;7.13;;;6.93;;
673;SDS011;319;48.764;9.174;2023-07-31T13:01:16;8.10;;;7.90;;
673;SDS011;319;48.764;9.174;2023-07-31T13:03:45;7.30;;;7.10;;
673;SDS011;319;48.764;9.174;2023-07-31T13:06:12;7.70;;;7.50;;
673;SDS011;319;48.764;9.174;2023-07-31T13:08:40;5.50;;;5.40;;
673;SDS011;319;48.764;9.174;2023-07-31T13:11:07;7.77;;;7.57;;
673;SDS011;319;48.764;9.174;2023-07-31T13:13:34;9.80;;;9.60;;
673;SDS011;319;48.764;9.174;2023-07-31T13:16:02;10.40;;;10.10;;
673;SDS011;319;48.764;9.174;2023-07-31T13:18:29;7.87;;;7.67;;
673;SDS011;319;48.764;9.174;2023-07-31T13:20:56;11.30;;;11.00;;
673;SDS011;319;48.764;9.174;2023-07-31T13:23:25;10.77;;;10.47;;
673;SDS011;319;48.764;9.174;2023-07-31T13:26:15;10.17;;;9.87;;
673;SDS011;319;48.764;9.174;2023-07-31T13:28:42;8.03;;;7.83;;
673;SDS011;319;48.764;9.174;2023-07-31T13:31:10;12.50;;;12.20;;
673;SDS011;319;48.764;9.174;2023-07-31T13:33:37;10.93;;;10.63;;
673;SDS011;319;48.764;9.174;2023-07-31T13:36:04;17.97;;;17.47;;
673;SDS011;319;48.764;9.174;2023-07-31T13:38:31;20.00;;;19.40;;
673;SDS011;319;48.764;9.174;2023-07-31T13:40:58;16.67;;;16.20;;
673;SDS011;319;48.764;9.174;2023-07-31T13:43:25;21.10;;;20.50;;
673;SDS011;319;48.764;9.174;2023-07-31T13:45:52;20.00;;;19.40;;
673;SDS011;319;48.764;9.174;2023-07-31T13:48:22;16.90;;;16.40;;
673;SDS011;319;48.764;9.174;2023-07-31T13:50:56;20.60;;;20.00;;
673;SDS011;319;48.764;9.174;2023-07-31T13:53:23;20.37;;;19.77;;
673;SDS011;319;48.764;9.174;2023-07-31T13:56:11;19.40;;;18.90;;
673;SDS011;319;48.764;9.174;2023-07-31T13:58:46;15.00;;;14.60;;
673;SDS011;319;48.764;9.174;2023-07-31T14:01:14;15.67;;;15.27;;
673;SDS011;319;48.764;9.174;2023-07-31T14:03:42;15.27;;;14.87;;
673;SDS011;319;48.764;9.174;2023-07-31T14:06:09;19.03;;;18.53;;
673;SDS011;319;48.764;9.174;2023-07-31T14:08:39;15.27;;;14.87;;
673;SDS011;319;48.764;9.174;2023-07-31T14:11:06;18.10;;;17.60;;
673;SDS011;319;48.764;9.174;2023-07-31T14:13:33;17.90;;;17.40;;
673;SDS011;319;48.764;9.174;2023-07-31T14:16:00;17.00;;;16.50;;
673;SDS011;319;48.764;9.174;2023-07-31T14:18:47;15.60;;;15.20;;
673;SDS011;319;48.764;9.174;2023-07-31T14:21:14;17.80;;;17.30;;
673;SDS011;319;48.764;9.174;2023-07-31T14:23:40;17.00;;;16.50;;
673;SDS011;319;48.764;9.174;2023-07-31T14:26:07;12.80;;;12.50;;
673;SDS011;319;48.764;9.174;2023-07-31T14:28:37;16.23;;;15.83;;
673;SDS011;319;48.764;9.174;2023-07-31T14:31:04;19.23;;;18.73;;
673;SDS011;319;48.764;9.174;2023-07-31T14:33:31;18.87;;;18.37;;
673;SDS011;319;48.764;9.174;2023-07-31T14:36:00;18.07;;;17.57;;
673;SDS011;319;48.764;9.174;2023-07-31T14:38:27;16.47;;;16.00;;
673;SDS011;319;48.764;9.174;2023-07-31T14:40:54;17.53;;;17.03;;
673;SDS011;319;48.764;9.174;2023-07-31T14:43:21;16.60;;;16.10;;
673;SDS011;319;48.764;9.174;2023-07-31T14:45:49;17.40;;;16.90;;
673;SDS011;319;48.764;9.174;2023-07-31T14:48:16;18.47;;;17.97;;
673;SDS011;319;48.764;9.174;2023-07-31T14:50:43;14.50;;;14.10;;
673;SDS011;319;48.764;9.174;2023-07-31T14:53:12;18.10;;;17.60;;
673;SDS011;319;48.764;9.174;2023-07-31T14:55:39;14.70;;;14.30;;
673;SDS011;319;48.764;9.174;2023-07-31T14:58:05;16.70;;;16.20;;
673;SDS011;319;48.764;9.174;2023-07-31T15:00:32;12.50;;;12.20;;
673;SDS011;319;48.764;9.174;2023-07-31T15:02:59;16.93;;;16.43;;
673;SDS011;319;48.764;9.174;2023-07-31T15:05:27;15.00;;;14.60;;
673;SDS011;319;48.764;9.174;2023-07-31T15:07:54;14.30;;;13.90;;
673;SDS011;319;48.764;9.174;2023-07-31T15:23:40;14.07;;;13.67;;
673;SDS011;319;48.764;9.174;2023-07-31T15:26:07;14.70;;;14.30;;
673;SDS011;319;48.764;9.174;2023-07-31T15:28:34;11.53;;;11.23;;
673;SDS011;319;48.764;9.174;2023-07-31T15:31:02;12.63;;;12.33;;
673;SDS011;319;48.764;9.174;2023-07-31T15:33:29;13.63;;;13.23;;
673;SDS011;319;48.764;9.174;2023-07-31T15:37:48;14.33;;;13.93;;
673;SDS011;319;48.764;9.174;2023-07-31T15:39:40;13.60;;;13.20;;
673;SDS011;319;48.764;9.174;2023-07-31T15:42:07;14.40;;;14.00;;
673;SDS011;319;48.764;9.174;2023-07-31T15:44:34;14.50;;;14.10;;
673;SDS011;319;48.764;9.174;2023-07-31T15:47:01;14.63;;;14.23;;
673;SDS011;319;48.764;9.174;2023-07-31T15:49:35;10.80;;;10.50;;
673;SDS011;319;48.764;9.174;2023-07-31T15:52:05;5.37;;;5.27;;
673;SDS011;319;48.764;9.174;2023-07-31T15:54:33;4.87;;;4.77;;
673;SDS011;319;48.764;9.174;2023-07-31T15:57:01;6.10;;;6.00;;
673;SDS011;319;48.764;9.174;2023-07-31T15:59:28;5.30;;;5.20;;
673;SDS011;319;48.764;9.174;2023-07-31T16:01:55;4.80;;;4.70;;
673;SDS011;319;48.764;9.174;2023-07-31T16:04:22;5.30;;;5.20;;